KSME/SME METAR and TAF weather

Enter ICAO airport designator
Station Type Date Time Source
KSME METAR 2019/12/07 07:15 UTC NOAA

KSME 070715Z AUTO 36008KT 5SM BR OVC009 05/03 A3028 RMK AO2


Station Type Date Time Source
KSME Decoded METAR 2019/12/07 07:15 UTC NOAA

Somerset, Somerset-Pulaski County - J.T. Wilson Field Airport, KY, United States (KSME) 37-03-15N 084-36-54W
Dec 07, 2019 - 02:15 AM EST / 2019.12.07 0715 UTC
Wind: from the N (360 degrees) at 9 MPH (8 KT):0
Visibility: 5 mile(s):0
Sky conditions: overcast
Weather: mist
Temperature: 41 F (5 C)
Dew Point: 37 F (3 C)
Relative Humidity: 86%
Pressure (altimeter): 30.28 in. Hg (1025 hPa)
ob: KSME 070715Z AUTO 36008KT 5SM BR OVC009 05/03 A3028 RMK AO2
cycle: 7

Station Type Date Time Source
KSME TAF 2019/12/07 06:42 UTC NOAA

TAF KSME 070540Z 0706/0806 03007KT P6SM OVC008
FM071200 VRB04KT P6SM SCT019 BKN045
FM071400 VRB05KT P6SM SCT035 BKN040

Example: see airport list